Time;durP1;ratioP1;P1;durP2;ratioP2;P2;SDS_P1;SDS_P2;PMS_P1;PMS_P2;Temp;Humidity;BMP_temperature;BMP_pressure;BME280_temperature;BME280_humidity;BME280_pressure;Samples;Min_cycle;Max_cycle;Signal;HPM_P1;HPM_P2
2021/09/29 07:19:30;;;;;;;2.92;1.73;;;8.90;99.90;;;;;;5672066;23;20051;-93
2021/09/29 07:21:56;;;;;;;3.50;1.30;;;8.90;99.90;;;;;;4928320;29;20126;-93
2021/09/29 07:24:22;;;;;;;2.75;0.98;;;9.00;99.90;;;;;;4951692;29;20043;-91
2021/09/29 07:26:48;;;;;;;4.70;1.73;;;9.00;99.90;;;;;;4959723;29;20044;-92
2021/09/29 07:29:14;;;;;;;1.05;0.70;;;9.10;99.90;;;;;;4958270;29;20058;-92
2021/09/29 07:31:40;;;;;;;1.38;0.70;;;9.10;99.90;;;;;;4958290;28;20028;-93
2021/09/29 07:34:07;;;;;;;2.53;0.68;;;9.20;99.90;;;;;;4957986;28;20031;-93
2021/09/29 07:36:33;;;;;;;1.73;0.70;;;9.20;99.90;;;;;;4940361;29;20381;-93
2021/09/29 07:39:00;;;;;;;2.45;0.90;;;9.20;99.90;;;;;;4957703;29;20043;-93
2021/09/29 07:41:25;;;;;;;0.57;0.47;;;9.20;99.90;;;;;;4957115;28;20027;-92
2021/09/29 07:43:51;;;;;;;2.15;0.80;;;9.30;99.90;;;;;;4940131;29;20066;-93
2021/09/29 07:46:17;;;;;;;3.97;0.55;;;9.20;99.90;;;;;;4940045;29;20071;-91
2021/09/29 07:48:43;;;;;;;0.40;0.40;;;9.30;99.90;;;;;;4940884;29;20027;-95
2021/09/29 07:51:09;;;;;;;2.00;0.70;;;9.20;99.90;;;;;;4958940;29;20035;-93
2021/09/29 07:53:35;;;;;;;0.88;0.57;;;9.20;99.90;;;;;;4947826;29;20031;-95
2021/09/29 07:56:01;;;;;;;3.67;0.60;;;9.20;99.90;;;;;;4948723;29;20091;-92
2021/09/29 07:58:26;;;;;;;2.70;0.68;;;9.20;99.90;;;;;;4944806;29;20019;-94
2021/09/29 08:00:52;;;;;;;2.55;0.80;;;9.20;99.90;;;;;;4962433;29;20043;-92
2021/09/29 08:03:18;;;;;;;2.10;0.70;;;9.20;99.90;;;;;;4941615;29;20024;-94
2021/09/29 08:05:45;;;;;;;2.10;0.52;;;9.30;99.90;;;;;;4941651;29;20031;-93
2021/09/29 08:08:11;;;;;;;1.05;0.60;;;9.30;99.90;;;;;;4957816;29;20374;-93
2021/09/29 08:10:37;;;;;;;2.28;0.30;;;9.30;99.90;;;;;;4938689;29;20118;-94
2021/09/29 08:13:03;;;;;;;0.60;0.32;;;9.40;99.90;;;;;;4955573;29;20374;-94
2021/09/29 08:15:29;;;;;;;0.90;0.30;;;9.40;99.90;;;;;;4938028;29;20023;-93
2021/09/29 08:17:55;;;;;;;0.98;0.20;;;9.50;99.90;;;;;;4936896;29;20023;-93
2021/09/29 08:20:23;;;;;;;0.38;0.38;;;9.60;99.90;;;;;;4937764;29;20142;-93
2021/09/29 08:22:55;;;;;;;2.67;0.25;;;9.60;99.90;;;;;;4955773;29;20034;-93
2021/09/29 08:25:50;;;;;;;0.43;0.30;;;9.70;99.90;;;;;;4939338;29;20031;-93
2021/09/29 08:28:32;;;;;;;2.30;0.30;;;9.80;99.90;;;;;;4939692;29;20437;-94
2021/09/29 08:31:02;;;;;;;0.75;0.28;;;9.80;99.90;;;;;;4936001;29;20024;-91
2021/09/29 08:36:02;;;;;;;2.13;0.40;;;9.90;99.90;;;;;;4953719;29;20369;-93
2021/09/29 08:38:40;;;;;;;0.35;0.20;;;9.90;99.90;;;;;;4951161;29;20074;-92
2021/09/29 08:41:20;;;;;;;0.32;0.30;;;10.00;99.90;;;;;;4934637;29;20055;-93
2021/09/29 08:43:54;;;;;;;0.30;0.30;;;10.00;99.90;;;;;;4936396;29;20047;-92
2021/09/29 08:46:25;;;;;;;2.50;0.30;;;10.00;99.90;;;;;;4939624;29;20521;-93
2021/09/29 08:54:07;;;;;;;1.73;0.40;;;10.20;99.90;;;;;;4959143;29;20034;-93
2021/09/29 09:16:48;;;;;;;4.25;0.73;;;10.40;99.90;;;;;;4884170;29;20098;-90
2021/09/29 09:19:15;;;;;;;3.05;0.65;;;10.50;99.90;;;;;;4878162;29;20033;-91
2021/09/29 09:21:54;;;;;;;3.22;0.63;;;10.60;99.90;;;;;;4872455;29;20166;-91
2021/09/29 09:24:23;;;;;;;7.57;1.95;;;10.60;99.90;;;;;;4866914;29;20049;-94
2021/09/29 09:27:04;;;;;;;3.03;0.63;;;10.80;99.90;;;;;;4865851;29;20431;-92
2021/09/29 09:29:30;;;;;;;5.00;1.00;;;11.00;99.90;;;;;;4862564;29;20022;-91
2021/09/29 09:32:13;;;;;;;8.30;0.98;;;11.10;99.90;;;;;;4863920;29;20069;-93
2021/09/29 09:34:39;;;;;;;6.93;0.77;;;11.40;99.90;;;;;;4884802;29;20051;-95
2021/09/29 09:37:09;;;;;;;1.00;0.60;;;11.60;99.90;;;;;;4893058;29;20036;-94
2021/09/29 09:39:34;;;;;;;3.67;0.60;;;11.80;99.90;;;;;;4876681;29;20021;-92
2021/09/29 09:42:03;;;;;;;2.38;0.75;;;11.90;99.90;;;;;;4934630;29;20038;-91
2021/09/29 09:44:34;;;;;;;4.68;0.80;;;12.00;99.90;;;;;;4956625;29;20020;-92
2021/09/29 09:47:21;;;;;;;4.38;0.80;;;12.00;99.90;;;;;;4959958;29;20043;-94
2021/09/29 09:49:47;;;;;;;4.22;0.60;;;12.10;99.90;;;;;;4942384;29;20036;-93
2021/09/29 09:52:25;;;;;;;3.85;0.80;;;12.00;99.90;;;;;;4959765;29;20034;-92
2021/09/29 09:54:51;;;;;;;3.38;0.55;;;12.00;99.90;;;;;;4922991;29;20035;-93
2021/09/29 09:57:21;;;;;;;3.78;0.68;;;12.00;99.90;;;;;;4941547;29;20126;-92
2021/09/29 09:59:54;;;;;;;5.72;0.82;;;12.10;99.90;;;;;;4940580;29;20035;-93
2021/09/29 10:02:20;;;;;;;5.22;0.80;;;12.10;99.90;;;;;;4935432;29;20037;-91
2021/09/29 10:04:47;;;;;;;6.75;1.25;;;12.10;99.90;;;;;;4940144;29;20100;-95
2021/09/29 10:07:13;;;;;;;5.85;0.77;;;12.00;99.90;;;;;;4939404;29;20043;-93
2021/09/29 10:09:48;;;;;;;7.35;0.65;;;12.20;99.90;;;;;;4939902;29;20039;-94
2021/09/29 10:15:20;;;;;;;7.28;0.80;;;12.50;99.90;;;;;;4956139;29;20023;-93
2021/09/29 10:28:42;;;;;;;3.00;0.55;;;12.50;99.90;;;;;;4955713;29;20042;-95
2021/09/29 10:34:27;;;;;;;2.95;0.98;;;11.80;99.90;;;;;;4912733;29;20308;-92
2021/09/29 10:45:28;;;;;;;5.32;0.43;;;10.80;99.90;;;;;;4956211;29;20054;-92
2021/09/29 11:05:12;;;;;;;1.70;0.40;;;10.30;99.90;;;;;;4879753;29;20098;-92
2021/09/29 11:34:56;;;;;;;0.35;0.20;;;13.70;99.90;;;;;;4947331;29;20370;-92
2021/09/29 12:10:28;;;;;;;1.35;0.45;;;16.80;90.60;;;;;;4953233;28;20050;-94
2021/09/29 12:12:55;;;;;;;0.43;0.20;;;16.90;89.80;;;;;;4937785;29;20027;-92
2021/09/29 12:15:24;;;;;;;1.17;0.30;;;17.00;89.50;;;;;;4939305;29;20051;-93
2021/09/29 12:23:36;;;;;;;2.15;0.40;;;17.60;85.20;;;;;;6051408;23;20020;-93
2021/09/29 12:26:20;;;;;;;0.45;0.30;;;17.70;83.90;;;;;;4914415;29;20070;-90
2021/09/29 12:29:09;;;;;;;1.95;0.25;;;17.70;81.40;;;;;;4912693;29;20139;-92
2021/09/29 12:31:49;;;;;;;2.80;0.20;;;17.70;81.90;;;;;;4905319;29;20036;-92
2021/09/29 12:34:32;;;;;;;1.52;0.40;;;17.70;81.90;;;;;;4915572;29;20121;-92
2021/09/29 12:37:09;;;;;;;2.92;0.43;;;17.60;80.20;;;;;;4907383;29;20031;-93
2021/09/29 12:39:37;;;;;;;1.05;0.30;;;17.60;79.90;;;;;;4914972;29;20028;-93
2021/09/29 12:42:09;;;;;;;1.00;0.38;;;17.50;79.10;;;;;;4915250;29;20035;-93
2021/09/29 12:44:51;;;;;;;1.60;0.50;;;17.40;79.10;;;;;;4906124;29;20534;-93
2021/09/29 12:47:24;;;;;;;1.73;0.50;;;17.60;79.50;;;;;;4914163;29;20146;-93
2021/09/29 12:49:50;;;;;;;1.50;0.50;;;17.70;79.20;;;;;;4909972;29;20054;-94
2021/09/29 12:52:29;;;;;;;1.58;0.40;;;18.10;78.80;;;;;;4896187;29;20083;-93
2021/09/29 12:54:56;;;;;;;2.22;0.57;;;18.30;77.10;;;;;;4913651;29;20095;-94
2021/09/29 12:57:24;;;;;;;2.58;0.60;;;18.40;76.30;;;;;;4914538;29;20040;-94
2021/09/29 12:59:50;;;;;;;2.80;0.52;;;18.30;75.50;;;;;;4914205;29;20046;-93
2021/09/29 13:02:16;;;;;;;4.30;0.50;;;18.20;74.80;;;;;;4914707;29;20036;-93
2021/09/29 13:04:42;;;;;;;1.48;0.43;;;18.10;74.00;;;;;;4913279;29;20198;-94
2021/09/29 13:07:11;;;;;;;1.58;0.40;;;18.20;74.80;;;;;;4913919;29;20119;-94
2021/09/29 13:09:37;;;;;;;3.40;0.60;;;18.30;73.90;;;;;;4896388;29;20028;-92
2021/09/29 13:12:03;;;;;;;4.65;0.57;;;18.20;73.40;;;;;;4908105;29;20043;-93
2021/09/29 13:14:31;;;;;;;5.25;0.55;;;18.10;71.70;;;;;;4911568;29;20052;-92
2021/09/29 13:16:59;;;;;;;3.03;0.65;;;18.00;71.70;;;;;;4907949;29;20031;-92
2021/09/29 13:19:33;;;;;;;5.38;0.50;;;17.90;71.80;;;;;;4895367;29;20494;-93
2021/09/29 13:22:05;;;;;;;3.92;0.68;;;18.00;72.80;;;;;;4892704;29;20088;-92
2021/09/29 13:37:41;;;;;;;3.30;0.82;;;18.40;68.70;;;;;;4915922;29;20104;-91
2021/09/29 13:40:07;;;;;;;1.23;0.38;;;18.60;67.00;;;;;;4902372;29;20040;-93
2021/09/29 13:42:34;;;;;;;1.65;0.40;;;18.80;66.70;;;;;;4921278;29;20032;-93
2021/09/29 14:32:26;;;;;;;6.78;0.98;;;15.80;79.80;;;;;;4941019;29;20038;-91
2021/09/29 14:34:52;;;;;;;5.88;0.88;;;15.90;80.50;;;;;;4920267;29;20028;-91
2021/09/29 14:37:18;;;;;;;6.97;1.45;;;16.10;81.00;;;;;;4920398;29;20482;-92
2021/09/29 14:39:45;;;;;;;5.22;1.63;;;16.40;81.30;;;;;;4920274;29;20027;-89
2021/09/29 14:42:17;;;;;;;6.30;1.77;;;16.70;81.10;;;;;;4919942;29;20032;-90
2021/09/29 14:44:43;;;;;;;5.15;1.00;;;17.00;80.50;;;;;;4919553;29;20024;-90
2021/09/29 14:47:10;;;;;;;9.77;1.35;;;17.20;78.80;;;;;;4918812;29;20042;-92
2021/09/29 14:49:45;;;;;;;13.60;1.63;;;17.20;76.70;;;;;;4918427;29;20035;-91
2021/09/29 14:52:13;;;;;;;8.88;1.00;;;17.20;76.30;;;;;;4918361;29;20044;-91
2021/09/29 14:54:39;;;;;;;6.90;1.23;;;17.20;76.30;;;;;;4919655;29;20497;-91
2021/09/29 14:57:10;;;;;;;5.03;1.05;;;17.00;75.40;;;;;;4918375;29;20027;-90
2021/09/29 14:59:40;;;;;;;7.20;1.30;;;16.90;74.30;;;;;;4934237;29;20035;-91
2021/09/29 15:11:59;;;;;;;10.38;2.42;;;17.00;74.00;;;;;;4983631;23;20070;-91
2021/09/29 15:14:30;;;;;;;5.15;1.40;;;17.10;73.80;;;;;;4952456;29;20031;-92
2021/09/29 15:17:09;;;;;;;8.18;1.25;;;17.20;73.60;;;;;;4936682;29;20034;-90
2021/09/29 15:22:32;;;;;;;4.07;1.10;;;17.00;72.50;;;;;;4956464;29;20023;-91
2021/09/29 15:25:09;;;;;;;6.47;1.35;;;17.00;72.60;;;;;;4939451;29;20031;-92
2021/09/29 15:54:51;;;;;;;7.55;1.40;;;17.00;70.60;;;;;;4963816;23;20082;-91
2021/09/29 16:02:41;;;;;;;8.15;1.08;;;16.30;71.10;;;;;;4935338;29;20039;-91
2021/09/29 16:05:24;;;;;;;9.75;2.20;;;15.80;71.20;;;;;;4919220;29;20062;-91
2021/09/29 16:08:05;;;;;;;8.35;1.20;;;15.40;72.60;;;;;;4917876;29;20043;-89
2021/09/29 16:13:29;;;;;;;4.45;0.93;;;14.60;75.40;;;;;;4935463;29;20363;-91
2021/09/29 16:37:46;;;;;;;4.65;1.00;;;13.80;76.40;;;;;;4932107;29;20055;-93
2021/09/29 16:43:19;;;;;;;7.72;1.30;;;13.90;77.70;;;;;;4907905;29;20074;-94
2021/09/29 16:45:46;;;;;;;8.38;1.00;;;13.90;78.50;;;;;;4921457;29;20027;-93
2021/09/29 16:48:16;;;;;;;6.53;1.40;;;14.00;79.30;;;;;;4912907;29;20052;-93
2021/09/29 16:53:33;;;;;;;9.20;2.00;;;14.20;80.00;;;;;;4912683;29;20124;-94
2021/09/29 16:56:00;;;;;;;10.13;2.20;;;14.20;80.00;;;;;;4909308;29;20040;-93
2021/09/29 17:01:14;;;;;;;11.25;3.95;;;13.90;81.10;;;;;;4923842;29;20457;-91
2021/09/29 17:03:41;;;;;;;43.75;21.48;;;13.70;81.80;;;;;;4906754;29;20035;-91
2021/09/29 17:06:09;;;;;;;10.55;4.43;;;13.50;82.70;;;;;;4928529;29;20049;-90
2021/09/29 17:14:32;;;;;;;8.50;1.95;;;13.30;84.10;;;;;;4961890;23;20044;-89
2021/09/29 17:16:58;;;;;;;14.65;1.75;;;13.20;84.60;;;;;;4925710;29;20056;-88
2021/09/29 17:19:24;;;;;;;6.72;1.63;;;13.10;84.70;;;;;;4929671;29;20019;-89
2021/09/29 17:21:50;;;;;;;15.85;2.08;;;13.00;84.90;;;;;;4930720;29;20054;-90
2021/09/29 17:24:15;;;;;;;6.05;1.20;;;12.90;85.40;;;;;;4941471;29;20034;-89
2021/09/29 17:26:41;;;;;;;12.02;2.83;;;12.70;85.70;;;;;;4926763;29;20035;-89
2021/09/29 17:29:07;;;;;;;9.65;1.63;;;12.60;86.20;;;;;;4931091;29;20028;-90
2021/09/29 17:34:35;;;;;;;6.53;2.30;;;12.40;87.30;;;;;;4939540;29;20051;-89
2021/09/29 17:53:34;;;;;;;18.20;2.80;;;11.80;89.70;;;;;;4881081;29;20052;-93
2021/09/29 17:56:00;;;;;;;16.92;2.45;;;11.70;90.10;;;;;;4880655;29;20112;-92
2021/09/29 17:58:28;;;;;;;9.73;1.83;;;11.70;90.30;;;;;;4879930;29;20125;-91
2021/09/29 18:00:55;;;;;;;12.00;1.58;;;11.60;90.50;;;;;;4873679;29;20531;-91
2021/09/29 18:03:32;;;;;;;13.98;2.30;;;11.60;90.70;;;;;;4872072;29;20029;-90
2021/09/29 18:06:16;;;;;;;7.93;2.10;;;11.50;90.90;;;;;;4880074;29;20468;-90
2021/09/29 18:08:44;;;;;;;8.15;1.60;;;11.40;91.20;;;;;;4880648;29;20045;-90
2021/09/29 18:11:10;;;;;;;11.35;2.00;;;11.40;91.60;;;;;;4880629;29;20256;-91
2021/09/29 18:13:38;;;;;;;10.35;1.55;;;11.30;91.80;;;;;;4880076;29;20136;-90
2021/09/29 18:16:04;;;;;;;9.85;2.00;;;11.20;92.00;;;;;;4880644;29;20479;-91
2021/09/29 18:18:29;;;;;;;13.70;1.60;;;11.20;92.30;;;;;;4879515;29;20044;-90
2021/09/29 18:20:55;;;;;;;8.45;1.58;;;11.20;92.50;;;;;;4880748;29;20033;-90
2021/09/29 18:23:21;;;;;;;16.50;1.60;;;11.20;92.70;;;;;;4881133;29;20146;-91
2021/09/29 18:25:47;;;;;;;13.50;2.92;;;11.10;92.90;;;;;;4880351;29;20510;-90
2021/09/29 18:28:12;;;;;;;10.65;2.47;;;11.10;93.10;;;;;;4906991;29;20059;-91
2021/09/29 18:30:41;;;;;;;15.10;1.90;;;11.00;93.30;;;;;;4921967;29;20036;-91
2021/09/29 18:33:16;;;;;;;13.40;3.22;;;11.00;93.50;;;;;;4921924;29;20030;-91
2021/09/29 18:35:44;;;;;;;12.40;2.65;;;11.00;93.60;;;;;;4922342;29;20486;-91
2021/09/29 18:38:13;;;;;;;11.55;1.73;;;10.90;93.80;;;;;;4918797;29;20123;-91
2021/09/29 18:40:39;;;;;;;13.52;1.88;;;10.90;94.00;;;;;;4921397;29;20095;-92
2021/09/29 18:43:06;;;;;;;8.82;1.83;;;10.90;94.10;;;;;;4921744;29;20036;-91
2021/09/29 18:45:32;;;;;;;10.55;2.03;;;10.90;94.30;;;;;;4921525;29;20183;-90
2021/09/29 18:47:57;;;;;;;9.88;2.22;;;10.90;94.40;;;;;;4921222;29;20122;-91
2021/09/29 18:50:23;;;;;;;10.27;2.67;;;10.90;94.60;;;;;;4920648;29;20024;-91
2021/09/29 18:52:49;;;;;;;10.00;2.10;;;11.00;94.80;;;;;;4920672;29;20036;-92
2021/09/29 18:55:18;;;;;;;9.45;1.85;;;11.00;94.80;;;;;;4921519;29;20043;-91
2021/09/29 19:08:35;;;;;;;13.65;3.70;;;11.10;95.60;;;;;;4935846;29;20119;-91
2021/09/29 19:11:02;;;;;;;12.85;1.70;;;11.20;95.80;;;;;;4920704;29;20393;-90
2021/09/29 19:13:29;;;;;;;6.32;1.70;;;11.20;95.90;;;;;;4920367;29;20053;-92
2021/09/29 19:15:55;;;;;;;10.55;1.55;;;11.10;96.40;;;;;;4920656;29;20034;-90
2021/09/29 19:18:22;;;;;;;12.85;1.85;;;11.10;96.20;;;;;;4920131;29;20039;-90
2021/09/29 19:20:49;;;;;;;12.68;1.77;;;11.10;96.30;;;;;;4920271;29;20474;-90
2021/09/29 19:23:15;;;;;;;8.35;1.60;;;11.10;96.50;;;;;;4919974;29;20441;-90
2021/09/29 19:25:42;;;;;;;11.80;2.55;;;11.10;96.60;;;;;;4920508;29;20028;-90
2021/09/29 19:28:22;;;;;;;13.68;2.45;;;11.10;96.70;;;;;;4920650;29;20036;-92
2021/09/29 19:30:48;;;;;;;6.25;1.80;;;11.10;96.70;;;;;;4910847;29;20024;-91
2021/09/29 19:33:14;;;;;;;7.22;1.65;;;11.00;96.80;;;;;;4922134;29;20062;-91
2021/09/29 19:35:39;;;;;;;11.30;1.85;;;11.00;96.90;;;;;;4923550;29;20035;-91
2021/09/29 19:38:05;;;;;;;6.47;1.58;;;11.00;97.10;;;;;;4927196;29;20028;-91
2021/09/29 19:40:31;;;;;;;8.63;1.60;;;10.90;97.20;;;;;;4949620;29;20108;-91
2021/09/29 19:42:56;;;;;;;8.70;1.73;;;10.90;97.40;;;;;;4941587;29;20079;-93
2021/09/29 20:09:23;;;;;;;9.10;1.88;;;10.50;98.70;;;;;;4956224;29;20503;-91
2021/09/29 20:11:51;;;;;;;7.55;1.80;;;10.50;98.80;;;;;;4913843;29;20061;-91
2021/09/29 20:14:17;;;;;;;10.18;1.63;;;10.50;98.90;;;;;;4932306;29;20040;-92
2021/09/29 20:16:46;;;;;;;12.52;1.85;;;10.40;99.00;;;;;;4935253;29;20164;-92
2021/09/29 20:21:50;;;;;;;7.78;1.60;;;10.30;99.30;;;;;;4939273;23;20056;-92
2021/09/29 20:24:16;;;;;;;10.45;1.60;;;10.30;99.30;;;;;;4911946;29;20060;-92
2021/09/29 20:26:42;;;;;;;11.65;1.67;;;10.20;99.40;;;;;;4911074;29;20040;-92
2021/09/29 20:29:07;;;;;;;11.40;1.70;;;10.10;99.60;;;;;;4900069;29;20052;-91
2021/09/29 20:31:34;;;;;;;12.25;2.00;;;10.00;99.90;;;;;;4902894;29;20028;-92
2021/09/29 20:34:24;;;;;;;5.70;1.50;;;9.90;99.90;;;;;;4924138;29;20039;-91
2021/09/29 20:43:01;;;;;;;8.45;1.90;;;9.80;99.90;;;;;;4919023;29;20042;-92
2021/09/29 20:45:07;;;;;;;17.33;1.85;;;9.70;99.90;;;;;;4920613;29;20034;-92
2021/09/29 20:47:33;;;;;;;7.10;1.80;;;9.70;99.90;;;;;;4904585;29;20087;-92
2021/09/29 20:49:58;;;;;;;9.20;1.88;;;9.70;99.90;;;;;;4906567;29;20029;-91
2021/09/29 20:52:24;;;;;;;4.97;1.45;;;9.70;99.90;;;;;;4918219;29;20028;-92
2021/09/29 20:54:50;;;;;;;7.40;2.17;;;9.60;99.90;;;;;;4906341;29;20082;-92
2021/09/29 20:57:16;;;;;;;9.30;1.48;;;9.70;99.90;;;;;;4904432;29;20032;-93
2021/09/29 20:59:42;;;;;;;9.38;1.65;;;9.60;99.90;;;;;;4904027;29;20394;-92
2021/09/29 21:02:07;;;;;;;13.65;1.70;;;9.60;99.90;;;;;;4902535;29;20032;-92
2021/09/29 21:04:33;;;;;;;7.30;1.70;;;9.60;99.90;;;;;;4901104;29;20532;-92
2021/09/29 21:06:59;;;;;;;10.13;1.70;;;9.60;99.90;;;;;;4906097;29;20087;-92
2021/09/29 21:09:26;;;;;;;8.18;1.73;;;9.60;99.90;;;;;;4916642;29;20517;-92
2021/09/29 21:14:34;;;;;;;4.13;1.60;;;9.70;99.90;;;;;;4917358;29;20079;-93
2021/09/29 21:17:51;;;;;;;7.72;1.90;;;9.70;99.90;;;;;;4906296;29;20138;-92
2021/09/29 21:19:48;;;;;;;9.40;2.95;;;9.70;99.90;;;;;;4916695;29;20136;-92
2021/09/29 21:22:14;;;;;;;10.40;1.73;;;9.60;99.90;;;;;;4900748;29;20072;-93
2021/09/29 21:24:40;;;;;;;17.08;5.00;;;9.60;99.90;;;;;;4917531;29;20032;-92
2021/09/29 21:27:05;;;;;;;23.67;6.10;;;9.60;99.90;;;;;;4917816;29;20040;-92
2021/09/29 21:29:31;;;;;;;22.33;5.22;;;9.50;99.90;;;;;;4900605;29;20033;-91
2021/09/29 21:31:57;;;;;;;11.75;3.53;;;9.40;99.90;;;;;;4900263;29;20028;-92
2021/09/29 21:34:22;;;;;;;16.05;4.13;;;9.30;99.90;;;;;;4900323;29;20024;-91
2021/09/29 21:36:49;;;;;;;14.27;3.67;;;9.30;99.90;;;;;;4899823;29;20054;-92
2021/09/29 21:39:48;;;;;;;10.40;3.10;;;9.30;99.90;;;;;;4899798;29;20032;-91
2021/09/29 21:42:15;;;;;;;14.55;3.75;;;9.30;99.90;;;;;;4905792;29;20052;-91
2021/09/29 22:01:32;;;;;;;10.15;2.40;;;9.10;99.90;;;;;;4907505;29;20046;-90
2021/09/29 22:23:34;;;;;;;9.38;1.40;;;9.10;99.90;;;;;;4899055;29;20144;-91
2021/09/29 23:05:51;;;;;;;8.02;1.67;;;8.20;99.90;;;;;;4912915;29;20028;-91
2021/09/29 23:08:27;;;;;;;4.95;1.60;;;8.20;99.90;;;;;;4883133;29;20050;-92
2021/09/29 23:11:11;;;;;;;6.50;0.88;;;8.10;99.90;;;;;;4887806;29;20031;-91
2021/09/29 23:32:48;;;;;;;8.18;1.10;;;8.10;99.90;;;;;;4900283;29;20036;-92
2021/09/29 23:35:15;;;;;;;5.95;1.77;;;8.20;99.90;;;;;;4883992;29;20032;-91
2021/09/29 23:37:45;;;;;;;3.78;1.08;;;8.20;99.90;;;;;;4883968;29;20028;-91
2021/09/29 23:40:15;;;;;;;6.68;1.42;;;8.20;99.90;;;;;;4883721;29;20036;-91
2021/09/29 23:42:41;;;;;;;10.75;1.10;;;8.20;99.90;;;;;;4883546;29;20041;-90
2021/09/29 23:45:07;;;;;;;5.50;1.23;;;8.20;99.90;;;;;;4884302;29;20032;-91
2021/09/29 23:47:35;;;;;;;11.48;1.20;;;8.20;99.90;;;;;;4884397;29;20037;-91
2021/09/29 23:50:05;;;;;;;6.35;1.17;;;8.20;99.90;;;;;;4882762;29;20035;-92
2021/09/29 23:52:30;;;;;;;5.30;1.20;;;8.20;99.90;;;;;;4881347;29;20029;-91
2021/09/29 23:54:56;;;;;;;5.88;1.30;;;8.20;99.90;;;;;;4865810;29;20280;-92
2021/09/29 23:57:22;;;;;;;9.55;1.90;;;8.20;99.90;;;;;;4865628;29;20467;-91
2021/09/29 23:59:48;;;;;;;8.88;1.30;;;8.20;99.90;;;;;;4865674;29;20043;-91
